Time;durP1;ratioP1;P1;durP2;ratioP2;P2;SDS_P1;SDS_P2;PMS_P1;PMS_P2;Temp;Humidity;BMP_temperature;BMP_pressure;BME280_temperature;BME280_humidity;BME280_pressure;Samples;Min_cycle;Max_cycle;Signal;HPM_P1;HPM_P2
2021/06/22 00:00:47;;;;;;;13.83;6.80;;;;;;;21.69;58.90;99046.29;254151;1104;117347;-71
2021/06/22 00:05:56;;;;;;;7.13;6.33;;;;;;;21.73;59.65;99038.27;254313;1104;116918;-74
2021/06/22 00:11:00;;;;;;;13.03;6.65;;;;;;;21.73;59.63;99036.36;254296;1097;116389;-75
2021/06/22 00:16:04;;;;;;;8.95;6.15;;;;;;;21.69;59.51;99024.59;256303;1104;116515;-74
2021/06/22 00:21:08;;;;;;;15.05;6.48;;;;;;;21.71;59.59;99019.61;255075;1104;116140;-73
2021/06/22 00:26:11;;;;;;;6.80;6.13;;;;;;;21.73;59.35;99016.57;255401;1104;118483;-73
2021/06/22 00:31:17;;;;;;;10.23;6.60;;;;;;;21.70;59.48;99020.76;254497;1104;116879;-72
2021/06/22 00:36:20;;;;;;;7.13;5.98;;;;;;;21.63;59.44;99012.32;256317;1104;116915;-72
2021/06/22 00:41:23;;;;;;;15.43;6.60;;;;;;;21.60;59.74;99014.89;254337;1104;116776;-72
2021/06/22 00:46:27;;;;;;;11.83;6.97;;;;;;;21.54;59.80;99025.11;254236;1104;204169;-71
2021/06/22 00:51:31;;;;;;;5.65;5.28;;;;;;;21.46;59.88;99021.30;254620;1104;116126;-72
2021/06/22 00:56:36;;;;;;;7.55;5.68;;;;;;;21.36;59.32;99010.82;254228;1104;115497;-74
2021/06/22 01:01:40;;;;;;;8.35;5.65;;;;;;;21.41;59.78;99012.53;254809;1104;116088;-73
2021/06/22 01:06:44;;;;;;;16.95;7.55;;;;;;;21.40;59.91;99006.31;254833;1104;115739;-73
2021/06/22 01:11:48;;;;;;;10.70;7.17;;;;;;;21.37;59.71;99008.91;254627;1104;114863;-72
2021/06/22 01:16:57;;;;;;;15.83;7.38;;;;;;;21.34;59.90;99006.84;254350;1104;115587;-74
2021/06/22 01:22:00;;;;;;;8.87;6.80;;;;;;;21.19;60.12;99008.11;254491;1104;115505;-72
2021/06/22 01:27:03;;;;;;;6.20;5.35;;;;;;;21.02;60.33;99003.52;254474;1104;115694;-71
2021/06/22 01:32:08;;;;;;;7.67;6.63;;;;;;;20.93;60.59;98999.23;254470;1104;116603;-73
2021/06/22 01:37:12;;;;;;;12.95;7.33;;;;;;;20.92;61.19;99008.47;254860;1104;115654;-74
2021/06/22 01:42:15;;;;;;;18.35;7.70;;;;;;;20.92;60.94;99003.84;254205;1104;116546;-73
2021/06/22 01:47:19;;;;;;;22.45;7.95;;;;;;;20.94;61.38;99015.16;254122;1104;118530;-71
2021/06/22 01:52:22;;;;;;;10.13;7.70;;;;;;;20.95;61.40;99014.05;254428;1104;115849;-72
2021/06/22 01:57:26;;;;;;;8.60;6.78;;;;;;;20.94;61.50;99012.45;254260;1104;115699;-74
2021/06/22 02:02:29;;;;;;;8.35;7.18;;;;;;;20.86;61.27;99010.54;255344;1104;114886;-74
2021/06/22 02:07:32;;;;;;;8.98;6.85;;;;;;;20.87;61.64;99009.42;255014;1098;115150;-74
2021/06/22 02:12:37;;;;;;;15.68;8.23;;;;;;;20.89;61.76;99011.81;255424;1104;116047;-77
2021/06/22 02:17:40;;;;;;;14.28;6.95;;;;;;;20.84;61.62;99004.64;255050;1104;116381;-73
2021/06/22 02:22:44;;;;;;;9.13;8.40;;;;;;;20.78;61.84;99008.66;257282;1104;116076;-73
2021/06/22 02:27:48;;;;;;;12.23;8.30;;;;;;;20.76;62.35;99024.42;256449;1099;115736;-72
2021/06/22 02:32:52;;;;;;;8.08;6.38;;;;;;;20.76;62.41;99022.52;255656;1104;116616;-75
2021/06/22 02:37:55;;;;;;;13.18;8.93;;;;;;;20.77;62.53;99024.11;254995;1104;115649;-74
2021/06/22 02:42:59;;;;;;;8.68;7.70;;;;;;;20.70;62.81;99031.11;255668;1104;115174;-74
2021/06/22 02:48:05;;;;;;;13.43;8.08;;;;;;;20.65;62.76;99033.97;254309;1098;115403;-74
2021/06/22 02:53:10;;;;;;;11.28;7.08;;;;;;;20.46;62.64;99029.67;254309;1104;115745;-73
2021/06/22 02:58:13;;;;;;;12.55;7.85;;;;;;;20.34;62.60;99031.36;255364;1099;115595;-73
2021/06/22 03:03:16;;;;;;;11.33;6.80;;;;;;;20.20;62.90;99034.19;254861;1104;117111;-74
2021/06/22 03:08:19;;;;;;;14.50;8.70;;;;;;;20.23;63.46;99041.67;254202;1104;117663;-74
2021/06/22 03:13:30;;;;;;;8.38;7.68;;;;;;;20.29;63.79;99051.25;254386;1104;117120;-76
2021/06/22 03:18:34;;;;;;;8.10;7.45;;;;;;;20.31;63.49;99042.81;254212;1104;117256;-72
2021/06/22 03:23:37;;;;;;;18.55;9.50;;;;;;;20.26;64.09;99049.16;254442;1104;115985;-74
2021/06/22 03:28:39;;;;;;;8.48;7.68;;;;;;;20.39;64.35;99050.98;254207;1100;117159;-73
2021/06/22 03:33:43;;;;;;;12.50;8.45;;;;;;;20.54;64.23;99054.34;254697;1104;115802;-73
2021/06/22 03:38:46;;;;;;;19.10;9.58;;;;;;;20.66;64.52;99054.52;254488;1104;115397;-73
2021/06/22 03:43:49;;;;;;;8.53;7.70;;;;;;;20.90;64.43;99057.55;254476;1104;115671;-73
2021/06/22 03:48:53;;;;;;;9.90;8.75;;;;;;;20.94;64.34;99058.52;254528;1104;115323;-71
2021/06/22 03:53:56;;;;;;;14.45;8.95;;;;;;;21.12;64.56;99056.57;255115;1104;115947;-71
2021/06/22 03:59:00;;;;;;;11.95;10.23;;;;;;;21.36;64.14;99061.53;254478;1104;116918;-71
2021/06/22 04:04:03;;;;;;;12.88;9.33;;;;;;;21.41;64.01;99059.42;254245;1098;116891;-72
2021/06/22 04:09:06;;;;;;;10.45;9.28;;;;;;;21.54;64.39;99063.08;254324;1104;115172;-71
2021/06/22 04:14:10;;;;;;;14.08;9.15;;;;;;;21.87;64.29;99068.71;254955;1104;115493;-72
2021/06/22 04:19:13;;;;;;;8.80;7.90;;;;;;;22.12;63.90;99070.54;254267;1104;115588;-73
2021/06/22 04:24:16;;;;;;;14.10;9.65;;;;;;;22.40;64.24;99062.72;257156;1104;114862;-72
2021/06/22 04:29:20;;;;;;;18.53;10.05;;;;;;;22.70;64.06;99066.19;256730;1104;115721;-72
2021/06/22 04:34:25;;;;;;;8.43;7.18;;;;;;;24.08;62.05;99073.02;255748;1104;116285;-73
2021/06/22 04:39:28;;;;;;;15.68;9.00;;;;;;;27.86;57.77;99083.23;257257;1104;115138;-74
2021/06/22 04:44:31;;;;;;;21.25;8.73;;;;;;;30.33;54.14;99097.70;257344;1104;115782;-74
2021/06/22 04:49:35;;;;;;;12.60;7.73;;;;;;;31.35;50.94;99100.25;255270;1104;116584;-74
2021/06/22 04:54:39;;;;;;;15.23;8.05;;;;;;;30.83;50.22;99089.80;256427;1104;115063;-74
2021/06/22 04:59:44;;;;;;;13.40;7.90;;;;;;;29.90;50.13;99085.57;255196;1104;115539;-74
2021/06/22 05:04:56;;;;;;;18.45;7.78;;;;;;;30.46;49.51;99088.77;254454;1104;116409;-74
2021/06/22 05:10:00;;;;;;;17.45;8.10;;;;;;;32.23;46.99;99085.03;254206;1104;117272;-78
2021/06/22 05:15:09;;;;;;;26.07;6.53;;;;;;;34.37;43.15;99080.03;254461;1104;116187;-74
2021/06/22 05:20:13;;;;;;;6.63;5.25;;;;;;;36.97;41.23;99082.54;254291;1104;116970;-74
2021/06/22 05:25:16;;;;;;;;;;;;;;;39.26;37.61;99093.13;254518;1104;116843;-74
2021/06/22 05:30:20;;;;;;;6.80;4.33;;;;;;;40.35;35.19;99110.41;255292;1104;103716;-73
2021/06/22 05:35:24;;;;;;;16.97;4.80;;;;;;;41.18;32.47;99105.47;255323;1104;117130;-74
2021/06/22 05:40:29;;;;;;;5.60;3.70;;;;;;;42.28;31.18;99106.64;254422;1104;115966;-74
2021/06/22 05:45:32;;;;;;;12.37;4.50;;;;;;;43.47;29.80;99101.69;255134;1097;115779;-75
2021/06/22 05:50:36;;;;;;;5.13;4.43;;;;;;;44.68;28.76;99115.33;254470;1104;116643;-75
2021/06/22 05:55:40;;;;;;;10.98;4.33;;;;;;;45.57;27.10;99111.30;254464;1098;116275;-75
2021/06/22 06:00:44;;;;;;;3.93;3.57;;;;;;;46.35;26.05;99122.14;254431;1104;115865;-75
2021/06/22 06:05:47;;;;;;;8.70;4.35;;;;;;;47.12;25.02;99125.04;254478;1104;116264;-75
2021/06/22 06:10:51;;;;;;;8.50;4.38;;;;;;;47.25;23.53;99116.18;254387;1104;116085;-75
2021/06/22 06:15:54;;;;;;;4.93;3.28;;;;;;;47.19;22.84;99118.17;255467;1104;116162;-73
2021/06/22 06:21:01;;;;;;;8.73;4.78;;;;;;;47.34;22.43;99127.30;254568;1104;116020;-73
2021/06/22 06:26:06;;;;;;;8.70;4.30;;;;;;;47.50;22.40;99129.48;254516;1104;116041;-73
2021/06/22 06:31:10;;;;;;;4.53;3.97;;;;;;;47.73;21.95;99121.15;256014;1104;116686;-75
2021/06/22 06:36:13;;;;;;;5.02;4.62;;;;;;;47.89;21.96;99126.94;255286;1104;116629;-72
2021/06/22 06:41:17;;;;;;;6.20;4.20;;;;;;;47.93;21.36;99123.88;254638;1104;116113;-73
2021/06/22 06:46:21;;;;;;;6.33;4.03;;;;;;;48.02;20.73;99134.18;254309;1103;115610;-73
2021/06/22 06:51:25;;;;;;;5.35;4.18;;;;;;;48.03;22.16;99130.85;254488;1104;117365;-72
2021/06/22 06:56:29;;;;;;;8.63;3.40;;;;;;;47.75;21.58;99132.72;254815;1104;116741;-72
2021/06/22 07:01:37;;;;;;;7.53;4.33;;;;;;;47.59;21.55;99128.52;254563;1104;116712;-73
2021/06/22 07:06:41;;;;;;;5.63;3.90;;;;;;;47.07;21.02;99125.02;254409;1104;120354;-72
2021/06/22 07:11:45;;;;;;;11.20;5.87;;;;;;;46.83;21.85;99122.43;254404;1104;116419;-73
2021/06/22 07:16:50;;;;;;;16.43;6.23;;;;;;;46.75;22.08;99127.76;254535;1103;117332;-73
2021/06/22 07:21:53;;;;;;;9.85;4.58;;;;;;;46.39;21.10;99128.34;254391;1104;116371;-74
2021/06/22 07:26:55;;;;;;;7.88;5.05;;;;;;;45.43;22.18;99133.83;254414;1104;116529;-71
2021/06/22 07:31:58;;;;;;;5.33;4.15;;;;;;;44.73;23.32;99123.09;254318;1104;117066;-75
2021/06/22 07:37:02;;;;;;;4.83;3.90;;;;;;;43.95;23.77;99124.27;254608;1097;115757;-71
2021/06/22 07:42:05;;;;;;;6.85;3.35;;;;;;;42.98;26.00;99125.20;254594;1097;116865;-73
2021/06/22 07:47:09;;;;;;;4.40;2.53;;;;;;;42.47;25.79;99130.66;254556;1100;116391;-70
2021/06/22 07:52:14;;;;;;;3.85;3.48;;;;;;;41.64;26.40;99131.65;254528;1104;116301;-73
2021/06/22 07:57:18;;;;;;;6.73;3.28;;;;;;;41.48;27.09;99132.66;255294;1104;116224;-76
2021/06/22 08:02:21;;;;;;;4.30;3.00;;;;;;;41.14;27.58;99143.94;254322;1100;116126;-71
2021/06/22 08:07:24;;;;;;;6.53;4.00;;;;;;;40.36;28.58;99139.87;255424;1104;116103;-73
2021/06/22 08:12:29;;;;;;;7.07;3.73;;;;;;;39.58;28.85;99152.75;255410;1104;115397;-74
2021/06/22 08:17:32;;;;;;;5.28;3.73;;;;;;;39.56;29.48;99167.13;255373;1100;115009;-73
2021/06/22 08:22:35;;;;;;;8.78;3.68;;;;;;;39.64;29.58;99164.92;255770;1104;114805;-75
2021/06/22 08:27:38;;;;;;;5.85;4.35;;;;;;;39.70;30.03;99163.92;257003;1104;115129;-81
2021/06/22 08:32:41;;;;;;;17.67;5.37;;;;;;;39.73;29.72;99162.25;257254;1104;115274;-76
2021/06/22 08:37:44;;;;;;;8.05;4.30;;;;;;;39.41;29.54;99146.47;257215;1104;115648;-76
2021/06/22 08:42:48;;;;;;;12.55;4.15;;;;;;;38.91;30.10;99153.44;254860;1097;115513;-76
2021/06/22 08:47:51;;;;;;;7.78;4.15;;;;;;;38.64;29.21;99148.20;256677;1104;115052;-77
2021/06/22 08:52:54;;;;;;;5.80;3.80;;;;;;;38.58;31.26;99141.59;256980;1104;114821;-76
2021/06/22 08:58:09;;;;;;;8.57;4.27;;;;;;;38.66;30.23;99142.20;254401;1104;115528;-77
2021/06/22 09:03:22;;;;;;;3.43;3.13;;;;;;;38.38;30.24;99143.70;255414;1098;115653;-72
2021/06/22 09:08:34;;;;;;;9.27;4.77;;;;;;;38.57;30.19;99144.82;254328;1104;115642;-73
2021/06/22 09:13:41;;;;;;;7.43;4.13;;;;;;;38.26;29.25;99141.61;255425;1104;115473;-73
2021/06/22 09:18:46;;;;;;;7.08;4.20;;;;;;;38.15;29.62;99147.47;254425;1104;115284;-73
2021/06/22 09:23:53;;;;;;;11.20;4.88;;;;;;;38.02;31.13;99144.56;255118;1100;115167;-75
2021/06/22 09:29:12;;;;;;;9.08;4.15;;;;;;;38.05;30.54;99142.91;254287;1104;115792;-74
2021/06/22 09:34:19;;;;;;;6.88;4.10;;;;;;;37.74;31.52;99140.45;254492;1104;116493;-75
2021/06/22 09:39:25;;;;;;;6.65;4.30;;;;;;;37.80;31.51;99132.38;254989;1104;115387;-75
2021/06/22 09:44:30;;;;;;;21.18;5.63;;;;;;;37.84;31.18;99126.73;254517;1104;115803;-74
2021/06/22 09:49:36;;;;;;;5.57;3.87;;;;;;;37.94;30.77;99120.11;254106;1099;115517;-74
2021/06/22 09:54:53;;;;;;;19.37;4.77;;;;;;;38.04;30.76;99117.08;254514;1100;115804;-75
2021/06/22 10:00:05;;;;;;;9.50;4.73;;;;;;;38.10;31.17;99117.34;255177;1104;116442;-76
2021/06/22 10:05:08;;;;;;;9.30;4.58;;;;;;;37.98;32.00;99115.25;254316;1104;115715;-75
2021/06/22 10:10:15;;;;;;;10.25;4.60;;;;;;;38.02;31.94;99104.81;254084;1104;115529;-72
2021/06/22 10:15:18;;;;;;;10.03;4.90;;;;;;;37.90;30.95;99102.75;254164;1104;116243;-75
2021/06/22 10:20:21;;;;;;;11.30;4.98;;;;;;;37.82;30.75;99096.57;256046;1104;115567;-76
2021/06/22 10:25:26;;;;;;;10.18;4.48;;;;;;;37.71;31.79;99099.59;254543;1104;115386;-76
2021/06/22 10:30:30;;;;;;;8.23;5.53;;;;;;;37.31;30.96;99107.22;254356;1104;115234;-76
2021/06/22 10:35:34;;;;;;;8.10;5.18;;;;;;;37.42;31.21;99101.44;254136;1104;114933;-75
2021/06/22 10:40:37;;;;;;;;;;;;;;;37.53;31.85;99085.30;255865;1104;116283;-79
2021/06/22 10:46:03;;;;;;;17.98;5.95;;;;;;;36.83;30.92;99082.03;258060;1104;101933;-77
2021/06/22 10:51:28;;;;;;;10.00;5.80;;;;;;;36.58;31.40;99082.50;255133;1104;116240;-78
2021/06/22 10:56:33;;;;;;;12.15;4.90;;;;;;;35.89;32.34;99084.08;256663;1104;115588;-76
2021/06/22 11:01:54;;;;;;;11.35;5.90;;;;;;;35.77;33.28;99075.13;257275;1104;115391;-77
2021/06/22 11:07:02;;;;;;;9.60;6.38;;;;;;;35.69;32.84;99050.70;255618;1104;115386;-76
2021/06/22 11:12:21;;;;;;;8.97;5.03;;;;;;;35.18;32.93;99049.04;254282;1104;115089;-79
2021/06/22 11:17:56;;;;;;;10.78;5.00;;;;;;;34.61;33.96;99060.80;254183;1100;115747;-80
2021/06/22 11:23:04;;;;;;;15.80;6.20;;;;;;;34.28;35.25;99070.61;254231;1104;116185;-74
2021/06/22 11:28:07;;;;;;;8.13;6.17;;;;;;;33.86;35.01;99058.75;254310;1104;115502;-79
2021/06/22 11:33:46;;;;;;;13.30;7.10;;;;;;;33.66;35.95;99050.16;254892;1104;138270;-79
2021/06/22 11:39:16;;;;;;;8.45;6.68;;;;;;;33.40;35.81;99037.72;254143;1104;115592;-79
2021/06/22 11:44:25;;;;;;;20.75;7.08;;;;;;;33.03;38.37;99049.34;254628;1098;115288;-80
2021/06/22 11:49:46;;;;;;;14.95;8.08;;;;;;;32.56;39.89;99083.02;254251;1104;115467;-77
2021/06/22 11:54:51;;;;;;;7.05;5.35;;;;;;;31.68;40.78;99117.67;254535;1104;135205;-78
2021/06/22 11:59:58;;;;;;;11.00;9.40;;;;;;;30.30;42.43;99103.97;254595;1104;114986;-78
2021/06/22 12:05:12;;;;;;;14.65;6.98;;;;;;;29.16;44.97;99138.50;254783;1104;116629;-77
2021/06/22 12:10:21;;;;;;;14.93;8.78;;;;;;;28.23;46.82;99174.72;254260;1104;116413;-79
2021/06/22 12:15:32;;;;;;;22.53;11.58;;;;;;;27.64;48.27;99249.89;254262;1104;116030;-79
2021/06/22 12:20:41;;;;;;;23.27;11.37;;;;;;;26.78;49.53;99252.63;254336;1104;115570;-77
2021/06/22 12:25:48;;;;;;;10.48;9.25;;;;;;;26.21;51.22;99244.91;254336;1104;116858;-75
2021/06/22 12:30:59;;;;;;;11.50;7.77;;;;;;;25.63;51.86;99241.77;254698;1104;115384;-75
2021/06/22 12:36:06;;;;;;;8.48;7.18;;;;;;;25.21;52.50;99207.73;256935;1104;116472;-79
2021/06/22 12:41:11;;;;;;;12.00;7.88;;;;;;;24.94;53.37;99199.13;254436;1098;116716;-78
2021/06/22 12:46:17;;;;;;;11.70;8.05;;;;;;;24.70;53.65;99185.53;254135;1104;115952;-78
2021/06/22 12:51:22;;;;;;;8.40;6.60;;;;;;;24.62;55.15;99178.25;254342;1104;116494;-79
2021/06/22 12:56:49;;;;;;;12.37;7.93;;;;;;;24.53;55.06;99183.02;257226;1104;116119;-78
2021/06/22 13:02:09;;;;;;;9.10;7.55;;;;;;;24.42;56.08;99205.28;257188;1104;115350;-79
2021/06/22 13:07:19;;;;;;;9.18;8.20;;;;;;;24.36;56.66;99200.38;254541;1104;116613;-74
2021/06/22 13:12:30;;;;;;;8.05;7.38;;;;;;;24.37;57.35;99230.02;254895;1104;117047;-75
2021/06/22 13:17:36;;;;;;;6.30;5.85;;;;;;;24.46;57.20;99246.23;254364;1099;116499;-74
2021/06/22 13:22:40;;;;;;;10.80;7.73;;;;;;;24.43;57.51;99239.56;254359;1104;116189;-76
2021/06/22 13:27:46;;;;;;;8.85;8.15;;;;;;;24.36;57.64;99261.11;254567;1100;116933;-77
2021/06/22 13:32:54;;;;;;;9.98;9.10;;;;;;;24.27;58.71;99263.13;254479;1104;117342;-78
2021/06/22 13:38:02;;;;;;;8.43;7.63;;;;;;;24.23;59.37;99267.62;254426;1104;117599;-76
2021/06/22 13:43:13;;;;;;;12.27;9.23;;;;;;;24.25;59.40;99259.94;254310;1104;116784;-77
2021/06/22 13:48:28;;;;;;;8.53;7.73;;;;;;;24.19;59.63;99250.36;254450;1104;116807;-78
2021/06/22 13:53:39;;;;;;;7.08;6.65;;;;;;;24.13;60.07;99259.89;254359;1104;116528;-75
2021/06/22 13:58:44;;;;;;;6.45;6.05;;;;;;;23.94;60.22;99270.47;254641;1104;115865;-78
2021/06/22 14:03:51;;;;;;;6.13;5.53;;;;;;;23.82;60.44;99263.87;254529;1104;117477;-73
2021/06/22 14:08:57;;;;;;;6.05;5.55;;;;;;;23.73;61.14;99267.78;254418;1104;117018;-74
2021/06/22 14:14:00;;;;;;;6.03;5.53;;;;;;;23.62;61.28;99270.10;254577;1104;116077;-73
2021/06/22 14:19:04;;;;;;;8.50;5.70;;;;;;;23.56;61.95;99260.54;254176;1099;116410;-75
2021/06/22 14:24:08;;;;;;;5.30;4.80;;;;;;;23.53;62.05;99276.76;254334;1104;117237;-76
2021/06/22 14:29:11;;;;;;;6.13;5.60;;;;;;;23.42;62.51;99266.23;254432;1104;117374;-77
2021/06/22 14:34:16;;;;;;;5.43;4.93;;;;;;;23.44;63.30;99271.34;254171;1104;117681;-75
2021/06/22 14:39:19;;;;;;;6.10;4.23;;;;;;;23.47;63.18;99266.03;254228;1104;116860;-75
2021/06/22 14:44:23;;;;;;;6.45;5.40;;;;;;;23.39;63.17;99272.33;256635;1104;120878;-74
2021/06/22 14:49:27;;;;;;;5.20;4.80;;;;;;;23.21;63.79;99308.13;256828;1104;119970;-74
2021/06/22 14:54:32;;;;;;;7.60;6.28;;;;;;;23.01;64.16;99317.81;257279;1104;117154;-74
2021/06/22 14:59:39;;;;;;;6.97;5.67;;;;;;;22.98;64.63;99305.67;256933;1104;117106;-73
2021/06/22 15:04:42;;;;;;;8.03;7.18;;;;;;;23.05;65.11;99326.91;257253;1104;116100;-77
2021/06/22 15:09:46;;;;;;;6.68;6.18;;;;;;;23.12;65.13;99330.72;257109;1104;116069;-74
2021/06/22 15:14:53;;;;;;;10.25;5.80;;;;;;;23.08;65.19;99329.77;254534;1104;117274;-76
2021/06/22 15:19:58;;;;;;;6.58;6.05;;;;;;;23.05;65.61;99338.58;254467;1104;117912;-74
2021/06/22 15:25:03;;;;;;;7.63;7.03;;;;;;;22.99;66.20;99328.20;254496;1104;116177;-75
2021/06/22 15:30:10;;;;;;;47.45;41.40;;;;;;;23.03;66.25;99329.95;254320;1104;117085;-74
2021/06/22 15:35:17;;;;;;;33.95;30.38;;;;;;;23.09;66.43;99320.50;254339;1104;116724;-75
2021/06/22 15:40:23;;;;;;;11.95;8.40;;;;;;;23.16;66.78;99318.06;254713;1104;119253;-75
2021/06/22 15:45:27;;;;;;;9.77;8.40;;;;;;;23.25;66.72;99315.28;254141;1104;117457;-75
2021/06/22 15:50:31;;;;;;;9.98;8.98;;;;;;;23.28;66.80;99313.83;254910;1104;117196;-73
2021/06/22 15:55:38;;;;;;;8.83;7.93;;;;;;;23.32;66.94;99299.25;255524;1104;116193;-75
2021/06/22 16:00:42;;;;;;;9.77;7.53;;;;;;;23.37;66.58;99284.66;255374;1104;116128;-74
2021/06/22 16:05:46;;;;;;;10.50;9.33;;;;;;;23.36;66.68;99283.86;254329;1104;115479;-73
2021/06/22 16:10:49;;;;;;;10.15;8.30;;;;;;;23.41;66.73;99301.92;254812;1104;115702;-73
2021/06/22 16:15:53;;;;;;;16.98;8.25;;;;;;;23.44;67.06;99312.14;255031;1104;116138;-73
2021/06/22 16:20:58;;;;;;;10.28;9.35;;;;;;;23.51;67.28;99312.42;254881;1104;115274;-72
2021/06/22 16:26:05;;;;;;;11.88;10.23;;;;;;;23.56;67.37;99317.67;254207;1104;116617;-71
2021/06/22 16:31:10;;;;;;;10.95;9.15;;;;;;;23.68;67.48;99334.09;254213;1104;116242;-70
2021/06/22 16:36:14;;;;;;;9.20;7.50;;;;;;;23.65;67.24;99344.83;255240;1103;116159;-73
2021/06/22 16:41:17;;;;;;;11.28;10.18;;;;;;;23.61;67.93;99333.81;254239;1104;115310;-73
2021/06/22 16:46:21;;;;;;;8.60;7.80;;;;;;;23.65;67.82;99350.27;254259;1104;117176;-73
2021/06/22 16:51:24;;;;;;;11.68;9.58;;;;;;;23.77;68.34;99361.25;254380;1104;115314;-73
2021/06/22 16:56:29;;;;;;;9.25;8.40;;;;;;;23.68;68.41;99361.30;255362;1104;115316;-74
2021/06/22 17:01:33;;;;;;;11.10;8.93;;;;;;;23.62;68.48;99356.38;257232;1104;115369;-73
2021/06/22 17:06:38;;;;;;;13.98;9.03;;;;;;;23.82;68.65;99344.72;257138;1104;115675;-74
2021/06/22 17:11:41;;;;;;;10.00;9.10;;;;;;;24.04;68.79;99365.36;257182;1104;115872;-74
2021/06/22 17:16:44;;;;;;;12.48;11.08;;;;;;;24.18;68.38;99368.59;257023;1104;115127;-74
2021/06/22 17:21:50;;;;;;;10.60;9.73;;;;;;;24.28;67.73;99345.63;254332;1104;115236;-75
2021/06/22 17:26:54;;;;;;;12.75;11.80;;;;;;;24.27;67.87;99323.05;255181;1104;115335;-73
2021/06/22 17:31:57;;;;;;;13.03;11.45;;;;;;;24.24;67.90;99307.34;254588;1104;119047;-74
2021/06/22 17:37:00;;;;;;;10.88;9.93;;;;;;;24.18;67.84;99303.23;254342;1100;116142;-72
2021/06/22 17:42:03;;;;;;;17.03;11.50;;;;;;;24.15;67.74;99287.59;254355;1104;115524;-76
2021/06/22 17:47:07;;;;;;;11.85;10.80;;;;;;;24.06;67.79;99295.03;254311;1104;116448;-74
2021/06/22 17:52:11;;;;;;;16.17;11.33;;;;;;;24.02;67.97;99302.27;254464;1104;116389;-75
2021/06/22 17:57:35;;;;;;;14.80;11.53;;;;;;;23.89;67.94;99298.69;254644;1104;115887;-73
2021/06/22 18:02:38;;;;;;;12.63;11.37;;;;;;;23.81;68.38;99305.02;254524;1104;116028;-74
2021/06/22 18:07:43;;;;;;;16.38;12.00;;;;;;;23.80;68.21;99287.89;254435;1104;117457;-75
2021/06/22 18:12:50;;;;;;;13.38;12.08;;;;;;;23.72;68.21;99307.80;254204;1104;117606;-76
2021/06/22 18:17:53;;;;;;;15.23;11.33;;;;;;;23.63;68.48;99328.03;254169;1104;116930;-74
2021/06/22 18:22:57;;;;;;;12.83;11.63;;;;;;;23.56;68.66;99334.00;254394;1104;116414;-75
2021/06/22 18:28:01;;;;;;;13.55;12.25;;;;;;;23.45;69.04;99346.38;254828;1104;116566;-75
2021/06/22 18:33:04;;;;;;;15.28;13.73;;;;;;;23.39;68.71;99362.09;254319;1104;116836;-76
2021/06/22 18:38:08;;;;;;;14.90;12.98;;;;;;;23.31;68.71;99373.80;254159;1098;115898;-75
2021/06/22 18:43:13;;;;;;;15.33;14.03;;;;;;;23.22;69.17;99377.70;254729;1104;116661;-76
2021/06/22 18:48:17;;;;;;;13.13;12.13;;;;;;;22.84;68.96;99395.59;254422;1104;116439;-75
2021/06/22 18:53:21;;;;;;;15.77;11.67;;;;;;;22.55;69.44;99419.91;254195;1099;115943;-75
2021/06/22 18:58:25;;;;;;;13.40;12.15;;;;;;;22.36;69.66;99452.81;254298;1104;116362;-74
2021/06/22 19:03:28;;;;;;;14.25;12.90;;;;;;;22.26;70.40;99464.02;254201;1104;116357;-75
2021/06/22 19:08:32;;;;;;;13.83;12.57;;;;;;;22.31;70.60;99471.20;254394;1104;116441;-76
2021/06/22 19:13:38;;;;;;;21.43;14.08;;;;;;;22.40;70.71;99475.50;256091;1104;116732;-76
2021/06/22 19:18:41;;;;;;;14.43;13.03;;;;;;;22.43;70.71;99488.45;256346;1104;114791;-76
2021/06/22 19:23:44;;;;;;;16.60;15.03;;;;;;;22.43;71.07;99512.89;254263;1104;115665;-75
2021/06/22 19:28:49;;;;;;;16.10;12.93;;;;;;;22.38;70.78;99518.47;254363;1104;115279;-74
2021/06/22 19:33:52;;;;;;;14.65;13.55;;;;;;;22.26;70.62;99544.67;254598;1104;115872;-76
2021/06/22 19:38:58;;;;;;;15.08;13.83;;;;;;;22.10;70.77;99538.86;254209;1104;116313;-75
2021/06/22 19:44:02;;;;;;;15.85;14.30;;;;;;;22.05;70.79;99552.58;254384;1104;116016;-76
2021/06/22 19:49:05;;;;;;;17.33;15.30;;;;;;;22.01;71.11;99565.98;254341;1104;115264;-74
2021/06/22 19:54:08;;;;;;;17.85;16.05;;;;;;;22.00;71.53;99558.14;254238;1104;115788;-72
2021/06/22 19:59:14;;;;;;;16.10;14.45;;;;;;;21.98;71.44;99563.89;254226;1100;115818;-74
2021/06/22 20:04:18;;;;;;;16.75;15.05;;;;;;;21.99;71.67;99568.20;254544;1104;115548;-74
2021/06/22 20:09:22;;;;;;;17.90;16.30;;;;;;;21.97;71.81;99575.05;254334;1104;116202;-74
2021/06/22 20:14:26;;;;;;;22.57;15.70;;;;;;;21.94;71.76;99578.39;254901;1104;115875;-73
2021/06/22 20:19:30;;;;;;;15.93;14.15;;;;;;;21.76;71.45;99583.73;254274;1104;116602;-73
2021/06/22 20:24:34;;;;;;;16.55;15.05;;;;;;;21.64;71.81;99594.38;254483;1104;117774;-74
2021/06/22 20:29:39;;;;;;;15.93;14.27;;;;;;;21.63;72.04;99584.64;254435;1104;175692;-74
2021/06/22 20:34:44;;;;;;;14.28;13.03;;;;;;;21.63;72.17;99590.06;254638;1104;117055;-75
2021/06/22 20:39:48;;;;;;;17.18;14.33;;;;;;;21.49;72.16;99587.42;254415;1097;117198;-75
2021/06/22 20:44:55;;;;;;;14.83;13.43;;;;;;;21.45;72.55;99597.28;254420;1104;117996;-75
2021/06/22 20:49:58;;;;;;;13.58;12.28;;;;;;;21.47;72.33;99588.84;254440;1104;117095;-75
2021/06/22 20:55:02;;;;;;;14.45;13.15;;;;;;;21.38;72.42;99596.95;254151;1104;117975;-74
2021/06/22 21:00:09;;;;;;;13.68;12.45;;;;;;;21.32;72.58;99602.80;255978;1104;117205;-74
2021/06/22 21:05:13;;;;;;;15.60;14.30;;;;;;;21.19;72.23;99594.38;254414;1103;116497;-75
2021/06/22 21:10:19;;;;;;;14.95;13.65;;;;;;;21.21;72.95;99571.61;254514;1104;116897;-75
2021/06/22 21:15:26;;;;;;;15.15;13.78;;;;;;;21.28;72.95;99569.27;256663;1104;116361;-75
2021/06/22 21:20:29;;;;;;;20.33;12.68;;;;;;;21.21;72.67;99577.03;254461;1099;117971;-75
2021/06/22 21:25:32;;;;;;;17.10;15.30;;;;;;;21.17;72.63;99569.48;255570;1104;205099;-76
2021/06/22 21:30:36;;;;;;;15.95;14.10;;;;;;;21.14;72.75;99574.72;254929;1104;116281;-75
2021/06/22 21:35:39;;;;;;;14.35;13.00;;;;;;;21.03;72.34;99574.19;254207;1100;115559;-74
2021/06/22 21:40:42;;;;;;;16.80;13.48;;;;;;;21.00;72.83;99585.64;254415;1099;116834;-74
2021/06/22 21:45:45;;;;;;;17.03;14.93;;;;;;;20.86;72.61;99590.29;254423;1097;115842;-75
2021/06/22 21:50:49;;;;;;;15.33;13.73;;;;;;;20.87;73.19;99582.96;254505;1104;116682;-75
2021/06/22 21:55:53;;;;;;;15.75;14.20;;;;;;;20.85;72.72;99592.20;254465;1104;116366;-74
2021/06/22 22:00:56;;;;;;;13.97;12.70;;;;;;;20.71;72.86;99606.91;254466;1104;116655;-75
2021/06/22 22:06:00;;;;;;;15.38;12.73;;;;;;;20.70;73.12;99586.34;254468;1104;117463;-74
2021/06/22 22:11:03;;;;;;;17.55;15.48;;;;;;;20.68;73.04;99578.52;254415;1104;116382;-73
2021/06/22 22:16:06;;;;;;;15.58;13.95;;;;;;;20.65;73.00;99594.57;254503;1104;117287;-73
2021/06/22 22:21:11;;;;;;;14.95;13.43;;;;;;;20.52;72.49;99601.61;254257;1104;116533;-74
2021/06/22 22:26:15;;;;;;;18.20;15.08;;;;;;;20.38;72.89;99617.88;254649;1104;116509;-74
2021/06/22 22:31:19;;;;;;;15.40;13.55;;;;;;;20.30;73.08;99615.84;254524;1104;116783;-74
2021/06/22 22:36:23;;;;;;;19.00;14.97;;;;;;;20.29;72.98;99610.73;254506;1104;116264;-73
2021/06/22 22:41:26;;;;;;;17.55;15.40;;;;;;;20.22;73.21;99616.55;254505;1104;116276;-74
2021/06/22 22:46:29;;;;;;;17.50;15.13;;;;;;;20.22;73.95;99630.08;254393;1104;115126;-73
2021/06/22 22:51:33;;;;;;;15.60;14.20;;;;;;;20.26;73.95;99612.13;254716;1104;115829;-74
2021/06/22 22:56:36;;;;;;;17.80;13.75;;;;;;;20.29;73.77;99619.66;254300;1104;115852;-73
2021/06/22 23:01:40;;;;;;;18.78;15.63;;;;;;;20.28;74.21;99625.37;254220;1100;115581;-73
2021/06/22 23:06:46;;;;;;;16.55;13.63;;;;;;;20.27;73.90;99621.86;254385;1104;115122;-73
2021/06/22 23:11:50;;;;;;;16.30;14.18;;;;;;;20.25;73.89;99624.06;257366;1104;114787;-74